This is the latest recevied weather packets stored in our database for station/object AB8Y-13. If no packets are shown the sender has not sent any weather packets the latest 10 day(s).
| Time | Temp. | Humidity | Pressure | Rain* | Wind** | Luminosity | Snow |
|---|---|---|---|---|---|---|---|
| 1777476827 | 11.11° C | 71% | 1013.3 hPa | 0 mm | - | 344 W/m² | - |
| 1777476524 | 10.56° C | 77% | 1013.1 hPa | 0 mm | - | 453 W/m² | - |
| 1777476220 | 10.56° C | 72% | 1013.2 hPa | 0 mm | - | 502 W/m² | - |
| 1777475916 | 10.56° C | 74% | 1013 hPa | 0 mm | - | 370 W/m² | - |
| 1777475612 | 10.56° C | 73% | 1013.2 hPa | 0 mm | - | 623 W/m² | - |
| 1777475309 | 11.11° C | 71% | 1013.3 hPa | 0 mm | - | 1066 W/m² | - |
| 1777475004 | 11.11° C | 74% | 1013.2 hPa | 0 mm | - | 936 W/m² | - |
| 1777474701 | 10° C | 77% | 1013.2 hPa | 0 mm | - | 945 W/m² | - |
| 1777474397 | 10° C | 77% | 1013.2 hPa | 0 mm | - | 757 W/m² | - |
| 1777474094 | 9.44° C | 80% | 1013.2 hPa | 0 mm | - | 717 W/m² | - |
| 1777473792 | 8.89° C | 81% | 1013.2 hPa | 0 mm | - | 581 W/m² | - |
| 1777473488 | 8.33° C | 82% | 1013.5 hPa | 0 mm | - | 414 W/m² | - |
| 1777473184 | 8.33° C | 84% | 1013.4 hPa | 0 mm | - | 301 W/m² | - |
| 1777472881 | 8.33° C | 84% | 1013.5 hPa | 0 mm | - | 266 W/m² | - |
| 1777472577 | 8.33° C | 84% | 1013.6 hPa | 0 mm | - | 223 W/m² | - |
| 1777472274 | 7.78° C | 87% | 1013.5 hPa | 0 mm | - | 244 W/m² | - |
| 1777471970 | 7.78° C | 86% | 1013.6 hPa | 0 mm | - | 208 W/m² | - |
| 1777471667 | 7.78° C | 87% | 1013.7 hPa | 0 mm | - | 150 W/m² | - |
| 1777471363 | 7.78° C | 87% | 1013.7 hPa | 0 mm | - | 166 W/m² | - |
| 1777471060 | 7.78° C | 85% | 1013.8 hPa | 0 mm | - | 130 W/m² | - |
| 1777470756 | 7.78° C | 86% | 1014 hPa | 0 mm | - | 159 W/m² | - |
| 1777470453 | 8.33° C | 84% | 1013.9 hPa | 0 mm | - | 168 W/m² | - |
| 1777470150 | 8.33° C | 84% | 1013.8 hPa | 0 mm | - | 223 W/m² | - |
| 1777469846 | 7.78° C | 86% | 1014 hPa | 0 mm | - | 206 W/m² | - |
| 1777469542 | 7.78° C | 85% | 1013.8 hPa | 0 mm | - | 231 W/m² | - |
* Rain latest hour (hover to see other rain measurements)
** Current wind speed in m/s (hover to see current wind gust speed)